Aktualne dane pomiarowe

Uwaga, wersja testowa! Automatyczne pobieranie danych za pomocą narzędzi lub skryptów to umożliwiających jest zabronione.

Dane meteo z obszaru Polski uzyskane na podstawie depesz SYNOP pobieranych co godzinę z NWS. Najedź myszką na symbol przedstawiony w tabeli, aby uzyskać informacje co do jego znaczenia. Prosimy pamiętać, że to testowa wersja strony, która jeszcze nie jest ukończona. Stworzono również jest krótki FAQ dotyczący korzystania z tej podstrony Anomalie temperatury w chwili obecnej odniesione są do okresu referencyjnego 1951-2016. Okres ten będzie później zmieniony na 1981-2010. Kliknij ikonę aby pobrać plik CSV. Kliknij ikonę aby wygenerować mapę synoptyczną dla danego terminu.

Wybierz Datę:    

        

Włodawa (12497)

Dane terminowe dla wybranej stacji. Kliknij datę, aby otrzymać dane z tego terminu dla wszystkich stacji.

TemperaturaZachmurzenieWiatrCiśnienieOpadyPogoda
 Data t td wb tx tn tg rh  Nt Nl Cl Cm Ch ws wd g1 g2 wx mslp ppp ch 24h 12h t ww ww w1 w2  
2019-05-26 23:00:00 11.7 10.6 10.9--- 9313.0wx-wx3wx--31012.6 991.2 0.1---------
2019-05-26 22:00:00 12.0 10.1 10.7--- 8819.0wx-wx4wx--41012.7 991.3 0.2---------
2019-05-26 21:00:00 12.8 10.3 11.1--- 8520.0wx-wx3wx--31012.6 991.3 0.7---------
2019-05-26 20:00:00 13.8 10.2 11.5--- 7920.0wx-wx2wx--21012.3 991.1 0.5---------
2019-05-26 19:00:00 15.2 11.0 12.5--- 7620.0wx-wx2wx--21012.2 991.1 0.2---------
2019-05-26 18:00:00 18.5 11.1 13.9 21.9 15.2- 6220.0wx-wx2wx-1121011.5 990.6 -0.2- 0.012------
2019-05-26 17:00:00 20.0 10.4 14.2--- 5420.0wxwxwxwx2wx--21011.4 990.6 -0.3---------
2019-05-26 16:00:00 20.7 8.7 13.8--- 4620.0wxwxwxwx5wx-1051011.6 990.9 -0.3---------
2019-05-26 15:00:00 21.3 8.5 13.9--- 4420.0wxwxwxwx6wx---1011.5 990.8 -0.7---------
2019-05-26 14:00:00 21.3 8.9 14.1--- 4520.0wxwxwxwx7wx-1171011.6 990.9 -0.9---------
2019-05-26 13:00:00 21.2 9.1 14.2--- 4620.0wxwxwxwx7wx--71011.9 991.2 -1.0---------
2019-05-26 12:00:00 19.8 8.8 13.4--- 4920.0wxwxwx7wx-1271012.3 991.5 -0.9- 0.06------
2019-05-26 11:00:00 19.5 9.4 13.5--- 5220.0wxwxwxwx7wx-1071012.6 991.8 -0.7---------
2019-05-26 10:00:00 18.7 10.5 13.7--- 5920.0wxwxwxwx6wx--61013.1 992.2 -0.5---------
2019-05-26 09:00:00 17.9 10.3 13.3--- 6120.0wxwxwxwx6wx-1261013.4 992.4 -0.1---------
2019-05-26 08:00:00 17.2 9.9 12.8--- 6220.0wxwxwxwx6wx--61013.5 992.5 0.0---------
2019-05-26 07:00:00 16.0 8.7 11.6--- 6220.0wxwxwxwx6wx--61013.8 992.7 0.5---------
2019-05-26 06:00:00 15.2 10.2 12.0 18.1 10.1 8 7220.0wxwxwxwx4wx-1241013.7 992.5 0.5- 0.012----- 9.5
2019-05-26 05:00:00 13.3 10.3 11.3--- 8220.0wx-wx3wx---1013.8 992.5 0.7---------
2019-05-26 04:00:00 11.4 10.3 10.6--- 9315.0wx-wx1wx--11013.7 992.2 0.8---------
2019-05-26 03:00:00 10.4 9.3 9.6--- 9310.0wx-wx2wx-1221013.5 992.0 0.5---------
2019-05-26 02:00:00 10.5 9.4 9.7--- 9315.0wx-wx3wx--31013.3 991.8 0.5---------
2019-05-26 01:00:00 10.4 9.0 9.4--- 9120.0wx-wx2wx-721012.9 991.4 0.3---------
2019-05-26 00:00:00 12.3 9.8 10.6--- 8520.0wx-wx3wx--31012.9 991.5 0.7- 0.06------
2019-05-25 23:00:00 13.4 10.0 11.2--- 8020.0wx-wx4wx--41012.6 991.3 1.2---------
2019-05-25 22:00:00 14.6 10.2 11.8--- 7520.0wxwxwxwx3wx--31012.3 991.1 1.2---------
2019-05-25 21:00:00 15.7 10.0 12.1--- 6920.0wx-wx3wx--31011.9 990.8 1.4---------
2019-05-25 20:00:00 15.1 9.9 11.8--- 7120.0wxwxwxwx3wx--31011.2 990.1 0.7---------
2019-05-25 19:00:00 15.1 11.5 12.7--- 7920.0wxwxwxwx3wx---1011.0 989.9 0.4---------
2019-05-25 18:00:00 18.1 10.2 13.3 22.3 14.7- 6020.0wxwxwxwx3wx--31010.3 989.4 0.0- 0.012------
2019-05-25 17:00:00 20.8 9.7 14.3--- 4920.0wxwxwxwx3wx--31010.1 989.4 -0.1---------
2019-05-25 16:00:00 21.4 8.0 13.8--- 4220.0wxwxwxwx4wx--41010.2 989.5 -0.1---------
2019-05-25 15:00:00 21.9 8.0 14.0--- 4120.0wxwxwxwx5wx--51010.0 989.4 -0.2---------
2019-05-25 14:00:00 21.9 6.9 13.5--- 3820.0wxwxwxwx5wx---1010.1 989.5 -0.3---------
2019-05-25 13:00:00 21.8 7.2 13.6--- 3920.0wxwxwxwx5wx--51010.2 989.6 -0.2---------
2019-05-25 12:00:00 21.9 11.3 15.5--- 5120.0wxwxwxwx5wx-851010.2 989.6 -0.1- 0.06------
2019-05-25 11:00:00 20.3 11.5 14.9--- 5720.0wxwxwxwx5wx--51010.5 989.8 0.0---------
2019-05-25 10:00:00 19.8 10.8 14.3--- 5620.0wxwxwx6wx-861010.6 989.8 0.0---------
2019-05-25 09:00:00 19.8 13.9 15.9--- 6920.0wxwxwxwx3wx---1010.5 989.7 0.2---------
2019-05-25 08:00:00 19.2 14.0 15.8--- 7220.0wxwxwxwxwx3wx--31010.6 989.8 0.4---------
2019-05-25 07:00:00 16.5 14.1 14.8--- 8618.0wxwxwxwxwx1wx--11010.8 989.8 0.5---------
2019-05-25 06:00:00 14.7 13.4 13.8 15.1 13.0 13 928.0wxwxwxwx1wx--11010.6 989.5 0.4- 0.012wx-- 5.9
2019-05-25 05:00:00 13.8 12.9 13.1--- 948.0wxwxwxwx2wx---1010.6 989.4 0.5---wx---
2019-05-25 04:00:00 13.3 12.4 12.6--- 948.0wxwxwxwx2wx--21010.5 989.3 0.4---wx---
2019-05-25 03:00:00 13.1 12.3 12.5--- 956.0wxwxwxwx1wx--11010.4 989.1 -0.3---wx---
2019-05-25 02:00:00 13.3 12.4 12.6--- 946.0wxwxwxwx2wx--21010.1 988.9 -0.6---wx---
2019-05-25 01:00:00 13.7 12.8 13.0--- 946.0wxwxwx2wx--21010.1 988.9 -0.9---wx---
2019-05-25 00:00:00 13.6 12.8 13.0--- 956.0wxwxwx1wx--11010.6 989.4 -0.4- 0.06wx---
2.0 ms

 

Print Friendly, PDF & Email